Time;durP1;ratioP1;P1;durP2;ratioP2;P2;SDS_P1;SDS_P2;PMS_P1;PMS_P2;Temp;Humidity;BMP_temperature;BMP_pressure;BME280_temperature;BME280_humidity;BME280_pressure;Samples;Min_cycle;Max_cycle;Signal;HPM_P1;HPM_P2
2023/12/02 00:02:11;;;;;;;21.92;15.27;;;;;;;-0.38;100.00;94015.38;5022971;28;20014;-67
2023/12/02 00:04:36;;;;;;;20.02;13.90;;;;;;;-0.39;100.00;94018.09;5017971;28;20022;-68
2023/12/02 00:07:02;;;;;;;15.98;12.95;;;;;;;-0.41;100.00;94018.22;5027111;28;20029;-68
2023/12/02 00:09:27;;;;;;;31.23;22.08;;;;;;;-0.45;100.00;94011.63;5042666;28;20033;-68
2023/12/02 00:11:52;;;;;;;27.88;23.05;;;;;;;-0.45;100.00;94011.63;5024662;28;20068;-67
2023/12/02 00:14:18;;;;;;;20.95;16.70;;;;;;;-0.48;100.00;94020.44;5023189;28;20082;-68
2023/12/02 00:16:43;;;;;;;16.90;15.10;;;;;;;-0.55;100.00;94019.25;5022446;28;20030;-68
2023/12/02 00:19:08;;;;;;;17.75;14.45;;;;;;;-0.56;100.00;94022.78;5032644;28;20036;-68
2023/12/02 00:21:34;;;;;;;16.95;13.02;;;;;;;-0.55;100.00;94026.16;5024930;28;20092;-68
2023/12/02 00:23:59;;;;;;;13.25;11.57;;;;;;;-0.49;100.00;94029.13;5022316;28;20018;-68
2023/12/02 00:26:24;;;;;;;13.10;11.77;;;;;;;-0.46;100.00;94022.91;5022302;28;20034;-68
2023/12/02 00:28:50;;;;;;;13.75;12.32;;;;;;;-0.52;100.00;94023.38;5029455;28;20036;-67
2023/12/02 00:31:16;;;;;;;15.88;12.07;;;;;;;-0.49;100.00;94028.31;5026468;28;20501;-68
2023/12/02 00:33:41;;;;;;;12.23;10.93;;;;;;;-0.48;100.00;94033.34;5026281;28;20025;-68
2023/12/02 00:36:07;;;;;;;14.10;12.70;;;;;;;-0.49;100.00;94038.66;5026218;28;20021;-68
2023/12/02 00:38:32;;;;;;;26.02;21.95;;;;;;;-0.50;100.00;94031.84;5031280;28;20072;-68
2023/12/02 00:40:58;;;;;;;34.47;27.25;;;;;;;-0.46;100.00;94033.25;5023399;28;20499;-68
2023/12/02 00:43:23;;;;;;;22.80;20.23;;;;;;;-0.42;100.00;94036.44;5023048;28;20030;-68
2023/12/02 00:45:49;;;;;;;22.45;18.83;;;;;;;-0.41;100.00;94046.66;5023680;28;20045;-68
2023/12/02 00:48:14;;;;;;;104.50;58.33;;;;;;;-0.38;100.00;94040.44;5027438;28;20022;-68
2023/12/02 00:50:39;;;;;;;120.85;61.22;;;;;;;-0.37;100.00;94037.72;5021284;28;20619;-68
2023/12/02 00:53:05;;;;;;;77.72;46.22;;;;;;;-0.37;100.00;94048.06;5028451;28;20057;-68
2023/12/02 00:55:30;;;;;;;75.53;41.85;;;;;;;-0.35;100.00;94059.13;5029363;28;20018;-69
2023/12/02 00:57:55;;;;;;;48.08;31.75;;;;;;;-0.38;100.00;94053.38;5021066;28;20367;-68
2023/12/02 01:00:22;;;;;;;34.97;24.83;;;;;;;-0.38;100.00;94064.53;5022590;28;20064;-68
2023/12/02 01:02:47;;;;;;;37.72;25.42;;;;;;;-0.38;100.00;94068.88;5028262;28;20033;-68
2023/12/02 01:05:13;;;;;;;43.25;27.50;;;;;;;-0.41;100.00;94072.50;5027414;28;20109;-68
2023/12/02 01:07:39;;;;;;;23.60;19.13;;;;;;;-0.39;100.00;94080.16;5029891;28;20024;-67
2023/12/02 01:10:05;;;;;;;23.55;18.95;;;;;;;-0.40;100.00;94076.75;5034633;28;20064;-68
2023/12/02 01:12:30;;;;;;;26.90;19.15;;;;;;;-0.37;100.00;94078.28;5031470;28;20032;-68
2023/12/02 01:14:56;;;;;;;24.40;18.98;;;;;;;-0.40;100.00;94081.91;5029339;28;20022;-68
2023/12/02 01:17:21;;;;;;;20.80;17.17;;;;;;;-0.36;100.00;94085.09;5020487;28;20029;-68
2023/12/02 01:19:47;;;;;;;15.75;13.45;;;;;;;-0.38;100.00;94082.63;5027753;28;20091;-68
2023/12/02 01:22:12;;;;;;;11.63;10.43;;;;;;;-0.43;100.00;94092.50;5028667;28;20026;-68
2023/12/02 01:24:38;;;;;;;9.77;8.88;;;;;;;-0.43;100.00;94097.66;5025089;28;20029;-68
2023/12/02 01:27:03;;;;;;;8.43;7.63;;;;;;;-0.46;100.00;94098.69;5028392;28;20026;-68
2023/12/02 01:29:29;;;;;;;17.40;13.65;;;;;;;-0.50;100.00;94104.25;5022427;28;20021;-68
2023/12/02 01:31:54;;;;;;;19.00;14.20;;;;;;;-0.45;100.00;94110.69;5029348;28;20088;-68
2023/12/02 01:34:19;;;;;;;14.27;12.77;;;;;;;-0.43;100.00;94105.41;5025872;28;20049;-68
2023/12/02 01:36:45;;;;;;;13.15;11.85;;;;;;;-0.37;100.00;94115.31;5030919;28;20052;-68
2023/12/02 01:39:15;;;;;;;13.57;12.10;;;;;;;-0.35;100.00;94116.00;5031548;28;20030;-68
2023/12/02 01:41:41;;;;;;;11.85;10.65;;;;;;;-0.44;100.00;94111.53;5029469;28;20026;-68
2023/12/02 01:44:06;;;;;;;15.20;12.48;;;;;;;-0.47;100.00;94115.16;5023186;28;20071;-68
2023/12/02 01:46:31;;;;;;;12.30;11.07;;;;;;;-0.44;100.00;94121.88;5027631;28;20103;-69
2023/12/02 01:48:59;;;;;;;11.75;10.65;;;;;;;-0.37;100.00;94120.47;5031566;28;20025;-68
2023/12/02 01:51:26;;;;;;;14.02;12.52;;;;;;;-0.31;100.00;94117.44;5044281;28;20089;-68
2023/12/02 01:53:52;;;;;;;7.03;6.22;;;;;;;-0.37;100.00;94123.06;5030117;28;20399;-68
2023/12/02 01:56:18;;;;;;;5.03;4.63;;;;;;;-0.33;100.00;94127.09;5028612;28;20075;-69
2023/12/02 01:58:44;;;;;;;6.82;5.60;;;;;;;-0.37;100.00;94124.84;5026891;28;20028;-69
2023/12/02 02:01:09;;;;;;;12.13;9.15;;;;;;;-0.38;100.00;94126.59;5025187;28;20013;-68
2023/12/02 02:03:35;;;;;;;6.18;5.57;;;;;;;-0.36;100.00;94132.47;5026892;28;20078;-69
2023/12/02 02:06:00;;;;;;;5.38;4.97;;;;;;;-0.39;100.00;94132.69;5025480;28;20033;-68
2023/12/02 02:08:26;;;;;;;8.77;8.07;;;;;;;-0.42;100.00;94137.28;5027023;28;20029;-68
2023/12/02 02:10:56;;;;;;;9.05;8.20;;;;;;;-0.43;100.00;94136.44;5025066;28;20029;-69
2023/12/02 02:13:21;;;;;;;9.32;8.43;;;;;;;-0.41;100.00;94139.75;5020792;28;20045;-69
2023/12/02 02:15:47;;;;;;;7.68;7.07;;;;;;;-0.46;100.00;94145.25;5030615;28;20075;-68
2023/12/02 02:18:12;;;;;;;11.35;7.70;;;;;;;-0.40;100.00;94153.50;5025558;28;20036;-68
2023/12/02 02:20:37;;;;;;;7.78;7.00;;;;;;;-0.37;100.00;94145.53;5029730;28;20030;-68
2023/12/02 02:23:04;;;;;;;6.82;6.22;;;;;;;-0.46;100.00;94157.38;5027035;28;20081;-69
2023/12/02 02:25:30;;;;;;;7.68;6.97;;;;;;;-0.47;100.00;94160.91;5021711;28;20041;-68
2023/12/02 02:27:55;;;;;;;8.35;7.28;;;;;;;-0.45;100.00;94169.34;5026847;28;20096;-68
2023/12/02 02:30:21;;;;;;;7.88;7.15;;;;;;;-0.45;100.00;94169.34;5029730;28;20029;-69
2023/12/02 02:32:46;;;;;;;7.10;6.47;;;;;;;-0.45;100.00;94169.34;5024447;28;20032;-69
2023/12/02 02:35:12;;;;;;;7.00;6.40;;;;;;;-0.46;100.00;94165.94;5027789;28;20025;-69
2023/12/02 02:37:38;;;;;;;7.07;6.20;;;;;;;-0.54;100.00;94172.63;5026117;28;20581;-69
2023/12/02 02:40:05;;;;;;;6.53;5.93;;;;;;;-0.58;100.00;94175.41;5023878;28;20108;-69
2023/12/02 02:42:31;;;;;;;5.90;5.30;;;;;;;-0.54;100.00;94170.03;5024284;28;20014;-68
2023/12/02 02:44:56;;;;;;;5.30;4.90;;;;;;;-0.52;100.00;94175.94;5024562;28;20037;-69
2023/12/02 02:47:22;;;;;;;5.32;4.93;;;;;;;-0.49;100.00;94168.75;5028960;28;20394;-69
2023/12/02 02:49:48;;;;;;;6.97;6.47;;;;;;;-0.45;100.00;94174.53;5023779;28;20044;-69
2023/12/02 02:52:13;;;;;;;10.63;9.63;;;;;;;-0.47;100.00;94172.03;5027715;28;20121;-69
2023/12/02 02:54:38;;;;;;;8.02;7.25;;;;;;;-0.54;100.00;94181.19;5031875;28;20051;-69
2023/12/02 02:57:05;;;;;;;8.00;7.25;;;;;;;-0.48;100.00;94169.59;5027494;28;20111;-69
2023/12/02 02:59:31;;;;;;;7.85;7.22;;;;;;;-0.44;100.00;94176.19;5022673;28;20041;-69
2023/12/02 03:01:56;;;;;;;5.95;5.55;;;;;;;-0.49;100.00;94175.69;5025622;28;20096;-69
2023/12/02 03:04:22;;;;;;;5.30;4.90;;;;;;;-0.54;100.00;94170.03;5030473;28;20561;-69
2023/12/02 03:06:47;;;;;;;5.10;4.70;;;;;;;-0.60;100.00;94177.28;5027363;28;20033;-68
2023/12/02 03:09:14;;;;;;;5.80;5.28;;;;;;;-0.58;100.00;94185.75;5030653;28;20033;-69
2023/12/02 03:11:39;;;;;;;22.48;20.35;;;;;;;-0.59;100.00;94193.63;5022579;28;20068;-68
2023/12/02 03:14:05;;;;;;;13.35;12.02;;;;;;;-0.58;100.00;94200.44;5012750;28;20041;-68
2023/12/02 03:16:31;;;;;;;8.60;7.85;;;;;;;-0.49;100.00;94201.56;5023886;28;20028;-69
2023/12/02 03:18:57;;;;;;;8.30;6.80;;;;;;;-0.49;100.00;94201.56;5020983;28;20033;-69
2023/12/02 03:21:22;;;;;;;7.82;7.10;;;;;;;-0.46;100.00;94199.56;5022607;28;20026;-69
2023/12/02 03:23:49;;;;;;;6.03;5.53;;;;;;;-0.48;100.00;94196.25;5021372;28;20534;-68
2023/12/02 03:26:15;;;;;;;5.05;4.65;;;;;;;-0.42;100.00;94204.53;5024674;28;20116;-68
2023/12/02 03:28:40;;;;;;;5.32;4.90;;;;;;;-0.47;100.00;94197.09;5024009;28;20119;-68
2023/12/02 03:31:06;;;;;;;4.22;3.90;;;;;;;-0.53;100.00;94211.28;5024831;28;20026;-69
2023/12/02 03:33:31;;;;;;;4.18;3.88;;;;;;;-0.49;100.00;94210.13;5026392;28;20033;-68
2023/12/02 03:35:57;;;;;;;7.28;6.00;;;;;;;-0.50;100.00;94207.66;5028093;28;20093;-69
2023/12/02 03:38:22;;;;;;;6.30;5.70;;;;;;;-0.46;100.00;94215.06;5026426;28;20033;-69
2023/12/02 03:40:48;;;;;;;5.28;4.80;;;;;;;-0.41;100.00;94214.75;5020783;28;20030;-69
2023/12/02 03:43:13;;;;;;;5.13;4.53;;;;;;;-0.42;100.00;94214.88;5024558;28;20379;-69
2023/12/02 03:45:39;;;;;;;4.50;4.20;;;;;;;-0.40;100.00;94213.81;5024997;28;20065;-69
2023/12/02 03:48:05;;;;;;;4.90;4.60;;;;;;;-0.38;100.00;94231.81;5025723;28;20616;-69
2023/12/02 03:50:30;;;;;;;4.90;4.50;;;;;;;-0.44;100.00;94233.06;5026462;28;20037;-68
2023/12/02 03:52:55;;;;;;;4.90;4.50;;;;;;;-0.43;100.00;94221.78;5024660;28;20395;-69
2023/12/02 03:55:21;;;;;;;4.65;4.25;;;;;;;-0.41;100.00;94234.63;5021190;28;20041;-69
2023/12/02 03:57:46;;;;;;;4.35;3.97;;;;;;;-0.51;100.00;94239.63;5025929;28;20022;-68
2023/12/02 04:00:13;;;;;;;6.55;5.95;;;;;;;-0.55;100.00;94251.09;5026881;28;20061;-68
2023/12/02 04:02:39;;;;;;;10.00;8.10;;;;;;;-0.56;100.00;94259.78;5026468;28;20037;-69
2023/12/02 04:05:08;;;;;;;6.90;6.30;;;;;;;-0.58;100.00;94252.16;5020225;28;20402;-68
2023/12/02 04:07:34;;;;;;;4.80;4.43;;;;;;;-0.56;100.00;94263.22;5021723;28;20029;-68
2023/12/02 04:10:00;;;;;;;4.88;4.05;;;;;;;-0.47;100.00;94266.91;5028941;28;20032;-68
2023/12/02 04:12:25;;;;;;;5.18;4.65;;;;;;;-0.43;100.00;94276.09;5027934;28;20018;-68
2023/12/02 04:14:50;;;;;;;10.85;9.60;;;;;;;-0.39;100.00;94263.78;5024402;28;20412;-68
2023/12/02 04:17:17;;;;;;;10.88;9.77;;;;;;;-0.39;100.00;94280.09;5026192;28;20033;-68
2023/12/02 04:19:43;;;;;;;11.38;10.18;;;;;;;-0.42;100.00;94277.75;5029186;28;20032;-67
2023/12/02 04:22:08;;;;;;;17.40;14.30;;;;;;;-0.45;100.00;94278.78;5025238;28;20025;-67
2023/12/02 04:24:33;;;;;;;12.98;11.57;;;;;;;-0.41;100.00;94284.56;5039497;28;20045;-67
2023/12/02 04:26:59;;;;;;;12.48;11.02;;;;;;;-0.35;100.00;94280.72;5038197;28;20029;-68
2023/12/02 04:29:24;;;;;;;14.52;12.25;;;;;;;-0.34;100.00;94283.19;5026416;28;20072;-68
2023/12/02 04:31:49;;;;;;;11.82;10.65;;;;;;;-0.30;100.00;94282.03;5020132;28;20033;-68
2023/12/02 04:34:15;;;;;;;10.23;9.30;;;;;;;-0.32;100.00;94290.84;5018930;28;20051;-68
2023/12/02 04:36:43;;;;;;;10.75;8.85;;;;;;;-0.39;100.00;94290.44;5026412;28;20029;-68
2023/12/02 04:39:11;;;;;;;7.75;7.07;;;;;;;-0.43;100.00;94291.59;5019402;28;20022;-67
2023/12/02 04:41:37;;;;;;;7.13;6.07;;;;;;;-0.40;100.00;94293.97;5027462;28;20485;-67
2023/12/02 04:44:03;;;;;;;10.07;9.18;;;;;;;-0.37;100.00;94292.94;5028436;28;20037;-67
2023/12/02 04:46:28;;;;;;;9.68;8.77;;;;;;;-0.37;100.00;94296.34;5023718;28;20022;-67
2023/12/02 04:48:54;;;;;;;11.50;10.38;;;;;;;-0.34;100.00;94306.44;5023930;28;20022;-67
2023/12/02 04:51:19;;;;;;;12.77;11.57;;;;;;;-0.34;100.00;94306.44;5037990;28;20022;-68
2023/12/02 04:53:44;;;;;;;11.50;10.38;;;;;;;-0.34;100.00;94306.44;5016335;28;20041;-67
2023/12/02 04:56:10;;;;;;;11.77;10.68;;;;;;;-0.39;100.00;94315.50;5021479;28;20029;-67
2023/12/02 04:58:37;;;;;;;11.93;10.65;;;;;;;-0.41;100.00;94315.59;5028375;28;20044;-67
2023/12/02 05:01:04;;;;;;;10.60;9.70;;;;;;;-0.39;100.00;94321.47;5027362;28;20106;-67
2023/12/02 05:03:29;;;;;;;8.50;7.80;;;;;;;-0.40;100.00;94321.59;5032213;28;20029;-67
2023/12/02 05:05:54;;;;;;;7.63;6.72;;;;;;;-0.39;100.00;94325.84;5029620;28;20033;-67
2023/12/02 05:08:20;;;;;;;7.15;6.55;;;;;;;-0.46;100.00;94328.84;5027927;28;20186;-67
2023/12/02 05:10:45;;;;;;;7.43;6.72;;;;;;;-0.43;100.00;94335.56;5025665;28;20017;-68
2023/12/02 05:13:11;;;;;;;7.68;7.07;;;;;;;-0.42;100.00;94342.38;5028245;28;20044;-67
2023/12/02 05:15:36;;;;;;;8.55;6.70;;;;;;;-0.41;100.00;94348.41;5026560;28;20026;-67
2023/12/02 05:18:02;;;;;;;7.15;6.55;;;;;;;-0.42;100.00;94349.34;5030978;28;20120;-67
2023/12/02 05:20:28;;;;;;;5.72;5.22;;;;;;;-0.40;100.00;94353.44;5030752;28;20025;-67
2023/12/02 05:22:53;;;;;;;5.68;5.18;;;;;;;-0.39;100.00;94356.88;5027413;28;20132;-67
2023/12/02 05:25:19;;;;;;;6.25;5.75;;;;;;;-0.44;100.00;94367.53;5030477;28;20455;-67
2023/12/02 05:27:44;;;;;;;5.95;5.38;;;;;;;-0.45;100.00;94365.88;5031099;28;20026;-67
2023/12/02 05:30:12;;;;;;;5.15;4.75;;;;;;;-0.41;100.00;94369.91;5022743;28;20033;-67
2023/12/02 05:32:38;;;;;;;5.13;4.70;;;;;;;-0.42;100.00;94376.00;5030036;28;20032;-67
2023/12/02 05:35:04;;;;;;;6.57;5.95;;;;;;;-0.42;100.00;94381.19;5030191;28;20025;-69
2023/12/02 05:37:29;;;;;;;6.50;6.00;;;;;;;-0.50;100.00;94388.66;5019168;28;20061;-66
2023/12/02 05:39:55;;;;;;;7.13;6.57;;;;;;;-0.49;100.00;94385.13;5024210;28;20076;-67
2023/12/02 05:42:20;;;;;;;7.05;6.35;;;;;;;-0.46;100.00;94395.25;5031006;28;20053;-67
2023/12/02 05:44:46;;;;;;;6.53;6.03;;;;;;;-0.48;100.00;94397.13;5003665;28;20124;-67
2023/12/02 05:47:11;;;;;;;7.05;6.35;;;;;;;-0.46;100.00;94397.84;5030534;28;20056;-67
2023/12/02 05:49:36;;;;;;;6.13;5.53;;;;;;;-0.42;100.00;94406.22;5028030;28;20029;-67
2023/12/02 05:52:02;;;;;;;8.57;7.75;;;;;;;-0.40;100.00;94412.94;5028303;28;20073;-67
2023/12/02 05:54:27;;;;;;;9.35;8.55;;;;;;;-0.39;100.00;94419.75;5029674;28;20021;-67
2023/12/02 05:56:52;;;;;;;9.95;9.05;;;;;;;-0.43;100.00;94431.25;5023695;28;20097;-68
2023/12/02 05:59:19;;;;;;;8.65;7.85;;;;;;;-0.41;100.00;94431.16;5023665;28;20029;-67
2023/12/02 06:01:44;;;;;;;7.70;7.05;;;;;;;-0.36;100.00;94431.66;5023466;28;20052;-67
2023/12/02 06:04:10;;;;;;;10.05;7.57;;;;;;;-0.44;100.00;94442.53;5034370;28;20041;-67
2023/12/02 06:06:35;;;;;;;15.00;11.88;;;;;;;-0.51;100.00;94449.88;5032384;28;20100;-67
2023/12/02 06:09:00;;;;;;;26.88;20.95;;;;;;;-0.51;100.00;94452.47;5035859;28;20036;-67
2023/12/02 06:11:26;;;;;;;24.70;18.00;;;;;;;-0.34;100.00;94450.47;5034517;28;20030;-67
2023/12/02 06:13:51;;;;;;;19.40;15.50;;;;;;;-0.48;100.00;94459.19;5045894;28;20030;-67
2023/12/02 06:16:16;;;;;;;27.92;19.38;;;;;;;-0.51;100.00;94460.22;5035012;28;20034;-67
2023/12/02 06:18:42;;;;;;;23.80;17.63;;;;;;;-0.59;100.00;94471.06;5033503;28;20084;-67
2023/12/02 06:21:09;;;;;;;21.10;16.30;;;;;;;-0.59;100.00;94471.06;5031409;28;20055;-67
2023/12/02 06:23:35;;;;;;;20.58;16.58;;;;;;;-0.55;100.00;94476.88;5031430;28;20026;-67
2023/12/02 06:26:00;;;;;;;22.95;16.90;;;;;;;-0.56;100.00;94477.81;5022175;28;20059;-68
2023/12/02 06:28:26;;;;;;;27.58;19.50;;;;;;;-0.63;100.00;94484.34;5032109;28;20030;-67
2023/12/02 06:30:52;;;;;;;22.10;17.10;;;;;;;-0.69;100.00;94480.41;5031466;28;20033;-66
2023/12/02 06:33:17;;;;;;;22.90;20.30;;;;;;;-0.67;100.00;94486.28;5021184;28;20030;-67
2023/12/02 06:35:42;;;;;;;26.33;20.08;;;;;;;-0.69;100.00;94490.75;5027294;28;20105;-67
2023/12/02 06:38:08;;;;;;;24.02;19.23;;;;;;;-0.62;100.00;94504.91;5026021;28;20104;-66
2023/12/02 06:40:33;;;;;;;26.92;18.30;;;;;;;-0.63;100.00;94505.81;5029125;28;20029;-67
2023/12/02 06:42:58;;;;;;;61.03;33.40;;;;;;;-0.64;100.00;94514.50;5025414;28;20490;-67
2023/12/02 06:45:24;;;;;;;53.58;30.50;;;;;;;-0.59;100.00;94517.63;5032699;28;20033;-67
2023/12/02 06:47:49;;;;;;;25.17;22.45;;;;;;;-0.54;100.00;94513.91;5025554;28;20549;-66
2023/12/02 06:50:14;;;;;;;30.10;23.60;;;;;;;-0.52;100.00;94519.81;5033394;28;20033;-67
2023/12/02 06:52:40;;;;;;;34.97;25.65;;;;;;;-0.54;100.00;94517.31;5026935;28;20037;-67
2023/12/02 06:55:08;;;;;;;33.35;23.52;;;;;;;-0.59;100.00;94516.81;5029861;28;20056;-67
2023/12/02 06:57:34;;;;;;;32.00;22.00;;;;;;;-0.61;100.00;94521.25;5035334;28;20029;-67
2023/12/02 06:59:59;;;;;;;23.20;17.55;;;;;;;-0.63;100.00;94523.13;5026331;28;20034;-67
2023/12/02 07:02:25;;;;;;;20.65;16.52;;;;;;;-0.58;100.00;94531.38;5022865;28;20084;-67
2023/12/02 07:04:52;;;;;;;18.55;16.58;;;;;;;-0.49;100.00;94538.50;5026728;28;20104;-67
2023/12/02 07:07:18;;;;;;;18.52;16.55;;;;;;;-0.47;100.00;94538.41;5018685;28;20060;-66
2023/12/02 07:09:43;;;;;;;21.55;15.98;;;;;;;-0.53;100.00;94533.66;5029170;28;20062;-67
2023/12/02 07:12:09;;;;;;;84.97;61.13;;;;;;;-0.56;100.00;94539.03;5027627;28;20044;-67
2023/12/02 07:14:35;;;;;;;54.53;42.28;;;;;;;-0.54;100.00;94532.00;5029583;28;20080;-67
2023/12/02 07:17:00;;;;;;;32.65;25.67;;;;;;;-0.52;100.00;94540.50;5027168;28;20041;-67
2023/12/02 07:19:25;;;;;;;31.02;25.17;;;;;;;-0.48;100.00;94547.13;5027021;28;20034;-67
2023/12/02 07:21:51;;;;;;;34.08;28.55;;;;;;;-0.44;100.00;94544.22;5024173;28;20045;-67
2023/12/02 07:24:16;;;;;;;34.55;27.52;;;;;;;-0.41;100.00;94548.34;5027331;28;20025;-67
2023/12/02 07:26:42;;;;;;;29.92;24.83;;;;;;;-0.41;100.00;94550.94;5024392;28;20021;-67
2023/12/02 07:29:07;;;;;;;33.88;25.23;;;;;;;-0.37;100.00;94554.97;5042934;28;20596;-67
2023/12/02 07:31:32;;;;;;;31.42;26.48;;;;;;;-0.36;100.00;94554.03;5025697;28;20094;-67
2023/12/02 07:33:58;;;;;;;29.08;23.48;;;;;;;-0.32;100.00;94563.25;5030408;28;20044;-67
2023/12/02 07:36:24;;;;;;;27.00;23.45;;;;;;;-0.34;100.00;94565.09;5022845;28;20040;-67
2023/12/02 07:38:49;;;;;;;21.70;19.50;;;;;;;-0.35;100.00;94576.38;5032360;28;20033;-67
2023/12/02 07:41:14;;;;;;;25.20;18.88;;;;;;;-0.41;100.00;94574.22;5026561;28;20021;-67
2023/12/02 07:43:40;;;;;;;27.55;20.88;;;;;;;-0.39;100.00;94579.28;5028511;28;20164;-67
2023/12/02 07:46:06;;;;;;;35.92;23.85;;;;;;;-0.38;100.00;94584.34;5026107;28;20037;-67
2023/12/02 07:48:31;;;;;;;36.00;26.00;;;;;;;-0.42;100.00;94593.25;5019001;28;20030;-67
2023/12/02 07:50:56;;;;;;;44.83;36.05;;;;;;;-0.42;100.00;94595.81;5032380;28;20030;-67
2023/12/02 07:53:22;;;;;;;47.58;31.90;;;;;;;-0.41;100.00;94610.41;5025351;28;20085;-67
2023/12/02 07:55:47;;;;;;;37.88;30.33;;;;;;;-0.39;100.00;94607.75;5028301;28;20026;-67
2023/12/02 07:58:13;;;;;;;29.70;25.77;;;;;;;-0.36;100.00;94618.69;5024801;28;20037;-67
2023/12/02 08:00:38;;;;;;;17.90;16.10;;;;;;;-0.35;100.00;94622.94;5026420;28;20030;-67
2023/12/02 08:03:04;;;;;;;40.67;33.80;;;;;;;-0.39;100.00;94621.47;5027007;28;20033;-67
2023/12/02 08:05:29;;;;;;;48.05;37.45;;;;;;;-0.35;100.00;94620.34;5044420;28;20025;-67
2023/12/02 08:07:54;;;;;;;41.75;34.85;;;;;;;-0.33;100.00;94635.78;5030880;28;20053;-67
2023/12/02 08:10:20;;;;;;;43.03;34.88;;;;;;;-0.33;100.00;94633.19;5018893;28;20037;-67
2023/12/02 08:12:45;;;;;;;45.88;32.42;;;;;;;-0.30;100.00;94644.16;5036026;28;20036;-67
2023/12/02 08:15:11;;;;;;;42.97;35.13;;;;;;;-0.30;100.00;94644.16;5026380;28;20021;-67
2023/12/02 08:17:36;;;;;;;41.65;35.58;;;;;;;-0.33;100.00;94649.56;5029412;28;20057;-67
2023/12/02 08:20:03;;;;;;;37.00;29.08;;;;;;;-0.33;100.00;94646.97;5021079;28;20044;-67
2023/12/02 08:22:29;;;;;;;20.40;18.30;;;;;;;-0.35;100.00;94656.56;5027946;28;20076;-68
2023/12/02 08:24:54;;;;;;;21.40;16.90;;;;;;;-0.31;100.00;94667.53;5025608;28;20064;-67
2023/12/02 08:27:21;;;;;;;20.90;18.33;;;;;;;-0.27;100.00;94674.16;5028241;28;20510;-67
2023/12/02 08:29:46;;;;;;;25.70;22.10;;;;;;;-0.33;100.00;94674.56;5022263;28;20038;-68
2023/12/02 08:32:12;;;;;;;39.35;34.90;;;;;;;-0.31;100.00;94680.47;5022983;28;20029;-67
2023/12/02 08:34:37;;;;;;;30.77;27.08;;;;;;;-0.33;100.00;94683.19;5024805;28;20036;-67
2023/12/02 08:37:03;;;;;;;23.33;20.83;;;;;;;-0.32;100.00;94686.56;5032190;28;20402;-68
2023/12/02 08:39:28;;;;;;;20.88;18.67;;;;;;;-0.28;100.00;94689.81;5039994;28;20039;-67
2023/12/02 08:41:54;;;;;;;20.25;18.00;;;;;;;-0.24;100.00;94693.84;5028080;28;20034;-68
2023/12/02 08:44:19;;;;;;;13.90;12.50;;;;;;;-0.24;100.00;94699.00;5028106;28;20029;-67
2023/12/02 08:46:44;;;;;;;11.27;10.23;;;;;;;-0.22;100.00;94703.16;5025255;28;20017;-65
2023/12/02 08:49:10;;;;;;;10.65;9.55;;;;;;;-0.21;100.00;94709.16;5021690;28;20437;-66
2023/12/02 08:51:35;;;;;;;10.23;9.23;;;;;;;-0.24;100.00;94720.53;5018722;28;20056;-65
2023/12/02 08:54:01;;;;;;;8.93;8.02;;;;;;;-0.27;100.00;94719.91;5025412;28;20040;-65
2023/12/02 08:56:28;;;;;;;9.15;8.27;;;;;;;-0.26;100.00;94717.22;5026709;28;20028;-66
2023/12/02 08:58:54;;;;;;;12.23;11.02;;;;;;;-0.28;100.00;94721.66;5021890;28;20395;-65
2023/12/02 09:01:20;;;;;;;13.77;12.38;;;;;;;-0.22;100.00;94726.47;5022327;28;20022;-65
2023/12/02 09:03:45;;;;;;;10.52;9.63;;;;;;;-0.24;100.00;94730.06;5022019;28;20037;-65
2023/12/02 09:06:11;;;;;;;12.27;11.18;;;;;;;-0.18;100.00;94743.44;5024100;28;20037;-65
2023/12/02 09:08:36;;;;;;;9.15;8.38;;;;;;;-0.19;100.00;94746.09;5027079;28;20637;-65
2023/12/02 09:11:02;;;;;;;8.30;7.60;;;;;;;-0.15;100.00;94744.97;5029414;28;20124;-64
2023/12/02 09:13:46;;;;;;;10.52;9.60;;;;;;;-0.13;100.00;94755.22;5026173;28;20032;-66
2023/12/02 09:16:22;;;;;;;8.73;7.88;;;;;;;-0.09;100.00;94762.72;5026503;28;20029;-66
2023/12/02 09:18:48;;;;;;;9.38;8.57;;;;;;;-0.06;100.00;94770.28;5021519;28;20033;-66
2023/12/02 09:21:28;;;;;;;18.92;17.10;;;;;;;-0.15;100.00;94776.88;5020681;28;20463;-66
2023/12/02 09:23:58;;;;;;;19.73;17.80;;;;;;;-0.16;100.00;94782.13;5020979;28;20037;-67
2023/12/02 09:26:37;;;;;;;15.02;13.63;;;;;;;-0.20;100.00;94793.59;5029933;28;20041;-66
2023/12/02 09:29:02;;;;;;;14.35;12.98;;;;;;;-0.24;100.00;94795.53;5022199;28;20034;-66
2023/12/02 09:31:28;;;;;;;17.67;15.73;;;;;;;-0.21;100.00;94804.88;5042268;28;20076;-65
2023/12/02 09:34:04;;;;;;;32.50;24.42;;;;;;;-0.19;100.00;94810.78;5029175;28;20108;-67
2023/12/02 09:36:34;;;;;;;22.48;19.50;;;;;;;-0.22;100.00;94810.97;5022339;28;20117;-64
2023/12/02 09:39:09;;;;;;;16.60;14.80;;;;;;;-0.18;100.00;94818.47;5027220;28;20066;-66
2023/12/02 09:41:51;;;;;;;10.57;9.52;;;;;;;-0.08;100.00;94821.28;5024541;28;20030;-65
2023/12/02 09:44:27;;;;;;;13.77;12.32;;;;;;;-0.12;100.00;94821.59;5030050;28;20405;-64
2023/12/02 09:47:17;;;;;;;12.55;11.35;;;;;;;-0.15;100.00;94828.63;5023567;28;20061;-66
2023/12/02 09:50:00;;;;;;;14.02;12.57;;;;;;;-0.12;100.00;94835.34;5029709;28;20040;-66
2023/12/02 09:52:55;;;;;;;12.05;10.85;;;;;;;-0.06;100.00;94837.56;5025206;28;20056;-67
2023/12/02 09:55:37;;;;;;;9.25;8.30;;;;;;;-0.09;100.00;94845.50;5022926;28;20069;-67
2023/12/02 09:58:16;;;;;;;13.02;11.80;;;;;;;-0.10;100.00;94845.59;5030941;28;20065;-68
2023/12/02 10:00:56;;;;;;;13.63;12.35;;;;;;;-0.13;100.00;94854.38;5025832;28;20041;-67
2023/12/02 10:03:28;;;;;;;13.93;12.73;;;;;;;-0.16;100.00;94862.34;5027947;28;20451;-67
2023/12/02 10:06:09;;;;;;;10.52;9.63;;;;;;;-0.11;100.00;94857.72;5026652;28;20046;-67
2023/12/02 10:08:44;;;;;;;8.63;7.93;;;;;;;-0.15;100.00;94874.34;5025111;28;20064;-67
2023/12/02 10:11:19;;;;;;;9.40;8.25;;;;;;;-0.14;100.00;94870.81;5025553;28;20068;-67
2023/12/02 10:13:54;;;;;;;7.40;6.80;;;;;;;-0.18;100.00;94877.13;5029448;28;20025;-67
2023/12/02 10:16:23;;;;;;;7.10;6.40;;;;;;;-0.19;100.00;94888.41;5027560;28;20037;-67
2023/12/02 10:18:53;;;;;;;7.90;7.10;;;;;;;-0.19;100.00;94896.16;5028432;28;20406;-68
2023/12/02 10:21:20;;;;;;;9.05;8.15;;;;;;;-0.19;100.00;94901.34;5024113;28;20589;-67
2023/12/02 10:24:05;;;;;;;12.68;11.43;;;;;;;-0.18;100.00;94896.09;5028625;28;20029;-65
2023/12/02 10:26:58;;;;;;;30.88;25.00;;;;;;;-0.18;100.00;94896.09;5039163;28;20054;-65
2023/12/02 10:29:31;;;;;;;15.23;13.48;;;;;;;-0.14;100.00;94912.22;5026443;28;20573;-68
2023/12/02 10:32:15;;;;;;;12.38;11.07;;;;;;;-0.14;100.00;94907.06;5030827;28;20157;-67
2023/12/02 10:34:56;;;;;;;17.38;15.60;;;;;;;-0.13;100.00;94915.66;5025821;28;20036;-68
2023/12/02 10:37:28;;;;;;;12.85;10.32;;;;;;;-0.13;100.00;94919.06;5022922;28;20029;-68
2023/12/02 10:39:56;;;;;;;10.48;9.48;;;;;;;-0.14;100.00;94925.16;5028841;28;20360;-68
2023/12/02 10:42:27;;;;;;;47.65;32.45;;;;;;;-0.13;100.00;94923.44;5031557;28;20026;-68
2023/12/02 10:45:04;;;;;;;44.90;27.13;;;;;;;-0.13;100.00;94919.06;5030991;28;20464;-68
2023/12/02 10:47:31;;;;;;;17.25;15.00;;;;;;;-0.10;100.00;94929.25;5029752;28;20426;-68
2023/12/02 10:49:59;;;;;;;18.73;14.13;;;;;;;-0.05;100.00;94934.13;5027726;28;20026;-67
2023/12/02 10:52:28;;;;;;;9.10;8.20;;;;;;;-0.02;100.00;94933.91;5027121;28;20038;-68
2023/12/02 10:54:57;;;;;;;10.50;9.50;;;;;;;-0.05;100.00;94942.72;5032171;28;20041;-68
2023/12/02 10:57:25;;;;;;;9.18;8.38;;;;;;;-0.06;100.00;94946.25;5024317;28;20119;-68
2023/12/02 11:00:07;;;;;;;8.35;7.55;;;;;;;-0.09;100.00;94950.75;5031699;28;20047;-67
2023/12/02 11:02:49;;;;;;;21.63;19.33;;;;;;;-0.11;100.00;94957.78;5026398;28;20034;-68
2023/12/02 11:05:33;;;;;;;21.15;18.30;;;;;;;-0.08;100.00;94955.00;5024303;28;20056;-67
2023/12/02 11:08:06;;;;;;;15.82;14.23;;;;;;;-0.11;100.00;94958.66;5026330;28;20087;-67
2023/12/02 11:10:42;;;;;;;62.10;34.50;;;;;;;-0.15;100.00;94962.31;5028875;28;20093;-67
2023/12/02 11:13:12;;;;;;;11.85;10.65;;;;;;;-0.16;100.00;94960.66;5023077;28;20033;-68
2023/12/02 11:16:15;;;;;;;9.90;9.10;;;;;;;-0.15;100.00;94958.00;5026284;28;20125;-67